首页
METAR-TAF:

METAR-TAF

机场 :

Griffiss_Air_Force_Base

羅馬, 紐約州, 美国

纬度: 43-14N, 经度: 075-24W, 海拔: 154米

当前天气观测

该预报发布于54分钟前的23:53 UTC
风速4节,风向
温度 -2°C
湿度 93%
气压 1016 hPa
能見度: 14.5公里
阴天层高于1500英尺
未知

METAR: KRME 112353Z 35004KT 9SM UP OVC015 M02/M03 A3001 RMK AO2 SLP166 P0003 60018 I1001 I6001 T10171028 10006 21017 56021

时间: 19:47 (00:47 UTC)

预报

该预报发布于1小时和20分钟前的23:27 UTC
预报有效从12日的 00点(UTC)到 12日的 24点(UTC)
风速7节,风向东北
能見度: 1.6公里
阴天层高于1000英尺
小雪
短暂存在
从 12日的 00点(UTC)到 12日的 03点(UTC)
能見度: 6.4公里
阴天层高于1500英尺
(小) 冻, 雨, 冰粒
从 12日的 0600点(UTC)
风速7节,风向北转西北
能見度: 1.2公里
阴天层高于700英尺
小雪
从 12日的 1100点(UTC)
风速9节,风向西北
能見度: 6.4公里
阴天层高于2500英尺
小雪
从 12日的 1500点(UTC)
风速10节,风向西北,有时为19节阵风
能見度: 10公里
阴天层高于3000英尺
小雪
从 12日的 1900点(UTC)
风速9节,风向西北,有时为17节阵风
能見度: 10公里
多云层高于3500英尺

TAF: KRME 112327Z 1200/1224 05007KT 1SM -SN OVC010 TEMPO 1200/1203 4SM -FZRAPL OVC015 FM120600 33007KT 3/4SM -SN OVC007 FM121100 31009KT 4SM -SN OVC025 FM121500 32010G19KT P6SM -SN OVC030 FM121900 31009G17KT P6SM BKN035

超过4000个机场的气象观测和天气预报(METAR&TAF报告)。

可查询的气象台以黄色和红色小点在地图上表示。

将鼠标移到小点上方,可查看气象台名称。

然后点击查看天气观测和预报。

如需切换地图:点击带黑十字的绿色按钮放大地图;点击带横线的绿色按钮缩小地图;或者点击绿色箭头查看邻近地区的地图。


METAR-TAF: